Time;durP1;ratioP1;P1;durP2;ratioP2;P2;SDS_P1;SDS_P2;PMS_P1;PMS_P2;Temp;Humidity;BMP_temperature;BMP_pressure;BME280_temperature;BME280_humidity;BME280_pressure;Samples;Min_cycle;Max_cycle;Signal;HPM_P1;HPM_P2
2022/04/21 00:00:24;;;;;;;35.90;21.52;;;;;;;3.21;nan;100488.41;4996920;28;20361;-72
2022/04/21 00:02:49;;;;;;;32.42;19.83;;;;;;;3.23;nan;100494.22;5009915;28;20476;-73
2022/04/21 00:05:15;;;;;;;35.83;20.00;;;;;;;3.23;nan;100493.41;5007539;28;20057;-74
2022/04/21 00:07:40;;;;;;;33.05;19.83;;;;;;;3.16;nan;100481.09;5025564;28;20046;-74
2022/04/21 00:10:07;;;;;;;34.38;20.38;;;;;;;3.24;nan;100500.25;5026017;28;20450;-74
2022/04/21 00:12:34;;;;;;;33.45;19.67;;;;;;;3.22;nan;100497.81;5010379;28;20125;-73
2022/04/21 00:15:00;;;;;;;32.53;20.15;;;;;;;3.22;nan;100494.41;5009697;28;20129;-73
2022/04/21 00:17:26;;;;;;;38.25;21.75;;;;;;;3.12;nan;100486.84;5009500;28;20026;-73
2022/04/21 00:19:51;;;;;;;35.38;21.20;;;;;;;3.20;nan;100499.78;5010583;28;20049;-73
2022/04/21 00:25:01;;;;;;;38.53;21.25;;;;;;;3.24;nan;100497.66;5010888;28;20038;-74
2022/04/21 00:27:26;;;;;;;36.03;20.65;;;;;;;3.23;nan;100496.81;5009659;28;20045;-72
2022/04/21 00:29:52;;;;;;;36.85;22.25;;;;;;;3.14;nan;100480.47;5010246;28;20139;-74
2022/04/21 00:32:17;;;;;;;38.38;21.15;;;;;;;3.11;nan;100470.41;5009317;28;20034;-75
2022/04/21 00:34:43;;;;;;;38.00;21.63;;;;;;;3.19;nan;100485.97;5009903;28;20026;-73
2022/04/21 00:37:08;;;;;;;37.75;21.77;;;;;;;3.18;nan;100486.94;5009098;28;20088;-72
2022/04/21 00:39:34;;;;;;;39.28;22.50;;;;;;;3.23;nan;100501.22;5025644;28;20468;-73
2022/04/21 00:42:01;;;;;;;38.80;22.20;;;;;;;3.22;nan;100495.22;5024745;28;20058;-75
2022/04/21 00:44:28;;;;;;;39.50;22.75;;;;;;;3.30;nan;100504.75;5010717;28;20033;-73
2022/04/21 00:46:55;;;;;;;35.83;21.38;;;;;;;3.18;nan;100486.94;5025317;28;20404;-74
2022/04/21 00:49:21;;;;;;;37.15;21.35;;;;;;;3.25;nan;100504.44;5010901;28;20033;-73
2022/04/21 00:51:48;;;;;;;39.90;22.42;;;;;;;3.17;nan;100487.91;5010221;28;20036;-75
2022/04/21 00:54:13;;;;;;;35.45;21.45;;;;;;;3.24;nan;100503.66;5014652;28;20407;-73
2022/04/21 00:56:41;;;;;;;38.42;22.35;;;;;;;3.13;nan;100494.44;5014640;28;20040;-73
2022/04/21 00:59:07;;;;;;;36.42;21.65;;;;;;;3.21;nan;100491.00;5028412;28;20037;-74
2022/04/21 01:04:18;;;;;;;37.58;21.63;;;;;;;3.20;nan;100499.78;5013862;28;20038;-74
2022/04/21 01:06:45;;;;;;;42.22;23.38;;;;;;;3.29;nan;100508.34;5014539;28;20030;-74
2022/04/21 01:09:11;;;;;;;35.10;21.30;;;;;;;3.26;nan;100504.28;5014152;28;20025;-74
2022/04/21 01:11:37;;;;;;;38.10;22.17;;;;;;;3.22;nan;100502.22;5029318;28;20084;-75
2022/04/21 01:14:03;;;;;;;36.92;21.70;;;;;;;2.96;nan;100461.72;5014074;28;20033;-74
2022/04/21 01:16:29;;;;;;;35.90;20.60;;;;;;;3.14;nan;100487.47;5014027;28;20040;-75
2022/04/21 01:18:56;;;;;;;36.28;20.92;;;;;;;3.07;nan;100478.75;5014152;28;20041;-73
2022/04/21 01:21:21;;;;;;;34.95;20.15;;;;;;;2.89;nan;100453.81;5029163;28;20456;-72
2022/04/21 01:23:46;;;;;;;35.67;20.63;;;;;;;3.01;nan;100480.22;5014454;28;20116;-72
2022/04/21 01:26:12;;;;;;;36.13;20.92;;;;;;;3.07;nan;100500.34;5013581;28;20133;-73
2022/04/21 01:28:38;;;;;;;34.92;20.52;;;;;;;2.93;nan;100483.69;5014126;28;20384;-73
2022/04/21 01:31:03;;;;;;;36.33;21.80;;;;;;;2.96;nan;100496.34;5011991;28;20041;-74
2022/04/21 01:33:29;;;;;;;37.92;21.30;;;;;;;2.87;nan;100486.97;5013682;28;20029;-73
2022/04/21 01:35:54;;;;;;;37.03;21.08;;;;;;;2.84;nan;100489.13;5013812;28;20037;-73
2022/04/21 01:41:09;;;;;;;38.05;21.77;;;;;;;2.86;nan;100494.97;5014184;28;20042;-74
2022/04/21 01:43:35;;;;;;;36.60;20.70;;;;;;;2.84;nan;100491.72;5013484;28;20044;-74
2022/04/21 01:46:01;;;;;;;38.80;21.02;;;;;;;2.63;nan;100472.31;5025686;28;20026;-73
2022/04/21 01:48:27;;;;;;;36.38;20.75;;;;;;;2.84;nan;100505.53;5026165;28;20052;-73
2022/04/21 01:50:52;;;;;;;38.67;20.98;;;;;;;2.82;nan;100509.28;5027845;28;20060;-73
2022/04/21 01:53:18;;;;;;;36.88;21.63;;;;;;;2.76;nan;100503.00;5038120;28;20063;-74
2022/04/21 01:55:43;;;;;;;37.08;21.45;;;;;;;2.64;nan;100473.16;5027342;28;20045;-74
2022/04/21 01:58:08;;;;;;;39.08;22.02;;;;;;;2.44;nan;100446.75;5021905;28;20034;-74
2022/04/21 02:00:34;;;;;;;38.22;21.80;;;;;;;2.65;nan;100491.16;5013403;28;20093;-74
2022/04/21 02:03:00;;;;;;;36.30;20.52;;;;;;;2.53;nan;100469.13;5012881;28;20025;-73
2022/04/21 02:05:25;;;;;;;37.90;21.65;;;;;;;2.66;nan;100492.81;5012978;28;20037;-74
2022/04/21 02:07:51;;;;;;;39.40;21.83;;;;;;;2.59;nan;100488.47;5013404;28;20042;-74
2022/04/21 02:10:19;;;;;;;39.10;22.27;;;;;;;2.53;nan;100482.13;5027178;28;20034;-73
2022/04/21 02:12:45;;;;;;;37.08;20.83;;;;;;;2.51;nan;100476.28;5013050;28;20037;-73
2022/04/21 02:15:11;;;;;;;37.00;20.85;;;;;;;2.55;nan;100496.56;5012816;28;20034;-73
2022/04/21 02:17:37;;;;;;;41.13;21.83;;;;;;;2.52;nan;100494.31;5013345;28;20472;-73
2022/04/21 02:20:08;;;;;;;39.78;21.92;;;;;;;2.49;nan;100478.25;5010906;28;20133;-73
2022/04/21 02:22:35;;;;;;;40.40;22.23;;;;;;;2.38;nan;100470.84;5011205;28;20053;-74
2022/04/21 02:25:02;;;;;;;41.15;21.58;;;;;;;2.37;nan;100469.22;5013684;28;20057;-72
2022/04/21 02:27:28;;;;;;;38.75;21.38;;;;;;;2.39;nan;100469.84;5012860;28;20089;-73
2022/04/21 02:29:54;;;;;;;37.47;21.20;;;;;;;2.31;nan;100461.13;5012633;28;20036;-73
2022/04/21 02:32:20;;;;;;;38.70;22.05;;;;;;;2.37;nan;100462.25;5010210;28;20112;-73
2022/04/21 02:34:46;;;;;;;40.75;22.67;;;;;;;2.34;nan;100454.78;5012454;28;20048;-75
2022/04/21 02:37:11;;;;;;;40.13;21.95;;;;;;;2.33;nan;100464.34;5012096;28;20048;-73
2022/04/21 02:39:36;;;;;;;39.40;22.75;;;;;;;2.26;nan;100450.44;5012691;28;20138;-73
2022/04/21 02:42:02;;;;;;;40.22;22.05;;;;;;;2.33;nan;100466.97;5012724;28;20491;-73
2022/04/21 02:44:27;;;;;;;39.92;22.45;;;;;;;2.36;nan;100459.81;5012002;28;20061;-74
2022/04/21 02:46:53;;;;;;;41.70;22.30;;;;;;;2.35;nan;100466.81;5012756;28;20048;-73
2022/04/21 02:49:19;;;;;;;41.35;22.92;;;;;;;2.27;nan;100446.03;5011939;28;20065;-73
2022/04/21 02:51:45;;;;;;;41.25;22.05;;;;;;;2.32;nan;100454.13;5012498;28;20041;-74
2022/04/21 02:59:41;;;;;;;39.97;23.25;;;;;;;2.28;nan;100440.69;5011918;28;20034;-73
2022/04/21 03:02:06;;;;;;;40.72;22.05;;;;;;;2.29;nan;100433.69;5012531;28;20038;-74
2022/04/21 03:04:31;;;;;;;39.63;21.98;;;;;;;2.37;nan;100441.47;4992301;28;20542;-73
2022/04/21 03:06:57;;;;;;;40.08;22.00;;;;;;;2.03;nan;100401.00;5012387;28;20161;-73
2022/04/21 03:09:22;;;;;;;39.67;22.42;;;;;;;2.20;nan;100424.31;5012193;28;20070;-73
2022/04/21 03:11:48;;;;;;;43.13;22.83;;;;;;;1.98;nan;100386.91;5010440;28;20041;-74
2022/04/21 03:14:15;;;;;;;47.47;23.83;;;;;;;2.11;nan;100424.34;5011361;28;20396;-74
2022/04/21 03:16:41;;;;;;;45.42;22.20;;;;;;;2.05;nan;100419.81;5011434;28;20044;-74
2022/04/21 03:19:06;;;;;;;200.43;48.83;;;;;;;2.27;nan;100410.47;5010479;28;20403;-73
2022/04/21 03:24:21;;;;;;;42.55;23.05;;;;;;;2.17;nan;100416.84;5003772;28;20435;-72
2022/04/21 03:26:52;;;;;;;38.83;21.85;;;;;;;1.92;nan;100427.34;5011307;28;20078;-73
2022/04/21 03:29:18;;;;;;;38.58;21.55;;;;;;;1.82;nan;100429.31;5011460;28;20026;-73
2022/04/21 03:31:44;;;;;;;38.47;22.40;;;;;;;1.71;nan;100414.91;5012103;28;20033;-73
2022/04/21 03:34:13;;;;;;;43.97;23.30;;;;;;;1.82;nan;100431.91;5010771;28;20126;-72
2022/04/21 03:36:44;;;;;;;42.33;22.02;;;;;;;1.70;nan;100432.28;5010306;28;20506;-75
2022/04/21 03:39:09;;;;;;;45.50;24.13;;;;;;;1.66;nan;100432.78;5003726;28;20042;-74
2022/04/21 03:41:35;;;;;;;40.10;22.50;;;;;;;1.68;nan;100430.81;5025705;28;20373;-74
2022/04/21 03:44:00;;;;;;;41.60;22.77;;;;;;;1.65;nan;100431.97;5010935;28;20129;-74
2022/04/21 03:46:26;;;;;;;49.22;23.10;;;;;;;1.59;nan;100414.44;5011609;28;20117;-74
2022/04/21 03:48:51;;;;;;;41.67;22.33;;;;;;;1.64;nan;100429.53;5010930;28;20042;-73
2022/04/21 03:51:16;;;;;;;42.58;22.85;;;;;;;1.67;nan;100427.41;5011000;28;20033;-74
2022/04/21 03:53:42;;;;;;;45.53;22.33;;;;;;;1.63;nan;100420.13;5006832;28;20050;-74
2022/04/21 03:56:07;;;;;;;51.72;23.75;;;;;;;1.68;nan;100433.41;5022368;28;20034;-74
2022/04/21 03:58:33;;;;;;;44.60;23.85;;;;;;;1.36;nan;100395.34;5011388;28;20070;-72
2022/04/21 04:00:59;;;;;;;42.22;23.10;;;;;;;1.67;nan;100435.19;5025727;28;20400;-73
2022/04/21 04:03:24;;;;;;;45.65;23.63;;;;;;;1.66;nan;100433.56;5011291;28;20034;-74
2022/04/21 04:05:49;;;;;;;42.63;22.80;;;;;;;1.55;nan;100417.53;5010855;28;20042;-73
2022/04/21 04:11:00;;;;;;;42.15;23.92;;;;;;;1.66;nan;100427.59;5009831;28;20034;-72
2022/04/21 04:13:26;;;;;;;46.17;24.48;;;;;;;1.78;nan;100447.03;5010457;28;20037;-72
2022/04/21 04:15:52;;;;;;;46.25;24.98;;;;;;;1.80;nan;100446.88;5008952;28;20026;-72
2022/04/21 04:18:22;;;;;;;45.25;23.65;;;;;;;1.70;nan;100432.28;5009877;28;20526;-72
2022/04/21 04:20:48;;;;;;;49.35;25.10;;;;;;;1.79;nan;100443.44;5010953;28;20159;-72
2022/04/21 04:23:21;;;;;;;46.72;24.40;;;;;;;1.85;nan;100447.97;5010649;28;20042;-72
2022/04/21 04:25:46;;;;;;;46.60;24.63;;;;;;;1.95;nan;100449.56;5011020;28;20034;-72
2022/04/21 04:28:12;;;;;;;50.03;25.08;;;;;;;2.00;nan;100453.28;5010329;28;20056;-74
2022/04/21 04:30:42;;;;;;;53.65;25.17;;;;;;;1.95;nan;100441.78;5010984;28;20365;-72
2022/04/21 04:33:08;;;;;;;55.03;25.58;;;;;;;1.89;nan;100425.06;5010802;28;20038;-72
2022/04/21 04:35:33;;;;;;;48.78;24.42;;;;;;;2.00;nan;100431.69;5010950;28;20038;-73
2022/04/21 04:37:59;;;;;;;51.95;24.42;;;;;;;2.22;nan;100458.72;5025583;28;20054;-74
2022/04/21 04:40:25;;;;;;;52.92;24.40;;;;;;;2.23;nan;100458.56;5009320;28;20061;-73
2022/04/21 04:42:57;;;;;;;51.08;25.27;;;;;;;2.33;nan;100464.34;5025442;28;20053;-72
2022/04/21 04:48:07;;;;;;;43.67;22.92;;;;;;;2.32;nan;100441.13;5023135;28;20034;-73
2022/04/21 04:50:32;;;;;;;43.72;24.17;;;;;;;2.48;nan;100463.66;5022210;28;20029;-72
2022/04/21 04:52:59;;;;;;;46.25;24.70;;;;;;;2.43;nan;100440.75;5023675;28;20038;-72
2022/04/21 04:55:25;;;;;;;56.65;25.60;;;;;;;2.59;nan;100457.28;5039075;28;20093;-72
2022/04/21 04:57:51;;;;;;;50.00;24.55;;;;;;;2.59;nan;100449.47;5022849;28;20034;-73
2022/04/21 05:00:18;;;;;;;49.63;24.52;;;;;;;2.69;nan;100456.06;5010213;28;20071;-73
2022/04/21 05:02:44;;;;;;;46.88;23.95;;;;;;;2.74;nan;100448.53;5010186;28;20040;-73
2022/04/21 05:05:11;;;;;;;43.40;24.98;;;;;;;2.80;nan;100441.03;5009585;28;20042;-74
2022/04/21 05:07:39;;;;;;;55.40;26.38;;;;;;;2.93;nan;100456.88;5010453;28;20034;-73
2022/04/21 05:10:08;;;;;;;61.83;27.35;;;;;;;3.02;nan;100460.22;5010496;28;20034;-74
2022/04/21 05:12:34;;;;;;;;;;;;;;;3.15;nan;100471.66;5009591;28;20030;-72
2022/04/21 05:14:59;;;;;;;49.75;24.27;;;;;;;3.19;nan;100453.94;5009899;28;20374;-72
2022/04/21 05:17:25;;;;;;;45.80;25.23;;;;;;;3.22;nan;100444.97;5009342;28;20030;-72
2022/04/21 05:19:52;;;;;;;44.33;24.95;;;;;;;3.46;nan;100470.78;5009038;28;20129;-72
2022/04/21 05:22:18;;;;;;;53.47;26.15;;;;;;;3.46;nan;100449.94;5006034;28;20041;-73
2022/04/21 05:24:52;;;;;;;46.10;26.38;;;;;;;3.67;nan;100469.28;5009120;28;20062;-74
2022/04/21 05:27:17;;;;;;;51.58;26.52;;;;;;;3.72;nan;100459.16;5009623;28;20057;-73
2022/04/21 05:32:28;;;;;;;43.45;24.45;;;;;;;3.91;nan;100453.41;5009685;28;20034;-74
2022/04/21 05:34:54;;;;;;;38.70;23.27;;;;;;;4.14;nan;100465.50;5008616;28;20488;-75
2022/04/21 05:37:20;;;;;;;35.90;21.52;;;;;;;4.21;nan;100480.28;5007862;28;20061;-75
2022/04/21 05:39:46;;;;;;;41.13;22.23;;;;;;;4.30;nan;100464.53;5028273;28;20030;-75
2022/04/21 05:42:22;;;;;;;44.35;23.45;;;;;;;4.35;nan;100460.38;5013455;28;20038;-77
2022/04/21 05:44:52;;;;;;;40.63;22.48;;;;;;;4.53;nan;100467.81;5009155;28;20045;-76
2022/04/21 05:47:17;;;;;;;;;;;;;;;4.66;nan;100474.97;5012599;28;20041;-76
2022/04/21 05:49:43;;;;;;;34.83;21.05;;;;;;;4.76;nan;100465.03;5013888;28;19909;-76
2022/04/21 05:52:12;;;;;;;40.30;22.42;;;;;;;4.79;nan;100466.47;5009150;28;20342;-77
2022/04/21 05:54:38;;;;;;;33.55;20.88;;;;;;;4.82;nan;100459.09;5013357;28;20415;-77
2022/04/21 05:57:03;;;;;;;37.38;21.17;;;;;;;4.94;nan;100469.03;5012277;28;20034;-76
2022/04/21 05:59:29;;;;;;;34.85;21.58;;;;;;;4.89;nan;100444.31;5013203;28;20779;-76
2022/04/21 06:01:54;;;;;;;35.00;21.27;;;;;;;4.90;nan;100443.31;5013343;28;20045;-76
2022/04/21 06:04:22;;;;;;;34.58;20.58;;;;;;;5.04;nan;100453.88;5013332;28;20025;-77
2022/04/21 06:06:50;;;;;;;38.92;22.45;;;;;;;5.03;nan;100431.41;5011920;28;20029;-79
2022/04/21 06:09:15;;;;;;;39.05;22.60;;;;;;;5.28;nan;100450.88;5013497;28;20109;-76
2022/04/21 06:11:42;;;;;;;42.58;24.58;;;;;;;5.47;nan;100462.47;5013078;28;20145;-79
2022/04/21 06:14:11;;;;;;;34.70;20.52;;;;;;;5.53;nan;100453.06;5013250;28;20095;-77
2022/04/21 06:16:36;;;;;;;32.72;20.02;;;;;;;5.59;nan;100449.69;5011515;28;20041;-76
2022/04/21 06:19:02;;;;;;;36.58;21.20;;;;;;;5.62;nan;100456.34;5013228;28;20487;-77
2022/04/21 06:21:28;;;;;;;32.58;18.95;;;;;;;5.72;nan;100448.97;5013511;28;20037;-76
2022/04/21 06:23:53;;;;;;;31.83;19.48;;;;;;;5.75;nan;100444.19;5013673;28;20124;-77
2022/04/21 06:26:19;;;;;;;30.58;19.13;;;;;;;5.91;nan;100465.75;5013347;28;20507;-77
2022/04/21 06:28:44;;;;;;;29.83;18.67;;;;;;;5.92;nan;100452.50;5007905;28;20579;-77
2022/04/21 06:31:10;;;;;;;30.90;18.92;;;;;;;6.06;nan;100474.34;5010847;28;20668;-77
2022/04/21 06:33:35;;;;;;;31.40;19.30;;;;;;;6.12;nan;100463.09;5012982;28;20128;-77
2022/04/21 06:36:03;;;;;;;31.05;19.67;;;;;;;6.20;nan;100462.13;5026546;28;20069;-77
2022/04/21 06:38:28;;;;;;;27.67;18.05;;;;;;;6.22;nan;100451.47;5012574;28;20136;-78
2022/04/21 06:40:55;;;;;;;30.60;19.25;;;;;;;6.36;nan;100450.53;5010666;28;20160;-75
2022/04/21 06:48:49;;;;;;;32.05;20.20;;;;;;;6.59;nan;100453.63;5012763;28;20046;-76
2022/04/21 06:51:15;;;;;;;28.95;18.98;;;;;;;6.61;nan;100437.75;5012296;28;20033;-77
2022/04/21 06:53:42;;;;;;;30.80;19.52;;;;;;;6.81;nan;100440.38;5012705;28;20389;-80
2022/04/21 06:56:08;;;;;;;36.08;20.33;;;;;;;6.86;nan;100445.81;5012991;28;20125;-78
2022/04/21 06:58:34;;;;;;;29.67;19.33;;;;;;;6.76;nan;100420.03;5011845;28;20037;-79
2022/04/21 07:01:00;;;;;;;32.75;19.95;;;;;;;7.11;nan;100455.72;5012574;28;20038;-79
2022/04/21 07:03:25;;;;;;;33.30;20.92;;;;;;;7.05;nan;100438.19;5012516;28;20093;-77
2022/04/21 07:05:52;;;;;;;31.50;20.33;;;;;;;7.21;nan;100443.06;5013024;28;20041;-77
2022/04/21 07:08:18;;;;;;;34.10;20.83;;;;;;;7.26;nan;100445.88;5007809;28;20033;-78
2022/04/21 07:10:43;;;;;;;32.15;20.17;;;;;;;7.41;nan;100454.31;5008453;28;20041;-78
2022/04/21 07:13:12;;;;;;;33.05;20.35;;;;;;;7.32;nan;100425.91;5008941;28;20064;-74
2022/04/21 07:15:40;;;;;;;30.73;20.10;;;;;;;7.56;nan;100434.94;5003860;28;20088;-75
2022/04/21 07:18:06;;;;;;;32.38;20.55;;;;;;;7.81;nan;100451.66;5008736;28;20026;-76
2022/04/21 07:20:31;;;;;;;30.10;19.90;;;;;;;7.89;nan;100451.41;5011040;28;20034;-76
2022/04/21 07:22:56;;;;;;;33.08;20.17;;;;;;;7.76;nan;100409.53;5011424;28;20092;-76
2022/04/21 07:25:22;;;;;;;33.83;19.73;;;;;;;7.88;nan;100402.63;5010219;28;20046;-75
2022/04/21 07:27:47;;;;;;;30.45;20.35;;;;;;;8.27;nan;100447.25;5007468;28;20114;-73
2022/04/21 07:30:13;;;;;;;34.05;19.83;;;;;;;8.32;nan;100435.13;5021204;28;20069;-76
2022/04/21 07:32:39;;;;;;;28.95;19.27;;;;;;;8.38;nan;100423.00;5006431;28;20112;-77
2022/04/21 07:35:05;;;;;;;25.98;17.77;;;;;;;8.52;nan;100434.25;5025226;28;20026;-77
2022/04/21 07:37:32;;;;;;;27.60;18.40;;;;;;;8.56;nan;100414.44;5009871;28;20473;-75
2022/04/21 07:39:58;;;;;;;29.30;18.55;;;;;;;8.69;nan;100422.25;5009997;28;20121;-76
2022/04/21 07:42:23;;;;;;;28.42;17.50;;;;;;;8.76;nan;100424.03;5013981;28;20088;-76
2022/04/21 07:44:49;;;;;;;28.88;19.85;;;;;;;8.89;nan;100445.75;5010701;28;20033;-75
2022/04/21 07:47:14;;;;;;;27.77;17.48;;;;;;;8.93;nan;100432.97;5008996;28;20026;-77
2022/04/21 07:49:46;;;;;;;27.23;18.60;;;;;;;8.98;nan;100433.19;5009036;28;20033;-76
2022/04/21 07:55:18;;;;;;;28.60;19.23;;;;;;;9.13;nan;100433.66;5023640;28;20491;-75
2022/04/21 07:57:45;;;;;;;29.15;18.08;;;;;;;9.23;nan;100427.13;5022235;28;20026;-75
2022/04/21 08:00:13;;;;;;;29.95;18.88;;;;;;;9.33;nan;100435.31;5020981;28;20099;-75
2022/04/21 08:02:40;;;;;;;26.55;18.27;;;;;;;9.41;nan;100431.59;5032498;28;20041;-75
2022/04/21 08:05:06;;;;;;;28.55;18.42;;;;;;;9.45;nan;100428.31;5034930;28;20036;-76
2022/04/21 08:07:32;;;;;;;26.13;17.42;;;;;;;9.46;nan;100410.75;5028071;28;20111;-76
2022/04/21 08:09:58;;;;;;;24.33;17.35;;;;;;;;;;5009869;28;20468;-76
2022/04/21 08:12:24;;;;;;;27.55;18.45;;;;;;;;;;5009051;28;20116;-77
2022/04/21 08:14:49;;;;;;;28.00;18.00;;;;;;;;;;5007237;28;20061;-77
2022/04/21 08:17:14;;;;;;;25.57;17.67;;;;;;;;;;5012484;28;20268;-77
2022/04/21 08:19:39;;;;;;;21.37;15.67;;;;;;;;;;5003588;28;20411;-77
2022/04/21 08:22:08;;;;;;;22.42;16.17;;;;;;;;;;5008433;28;20290;-77
2022/04/21 08:33:04;;;;;;;25.90;15.88;;;;;;;;;;4964223;28;20572;-75
2022/04/21 08:35:29;;;;;;;22.70;16.33;;;;;;;;;;4969102;28;20126;-75
2022/04/21 08:37:54;;;;;;;21.73;15.88;;;;;;;;;;4949751;28;20281;-75
2022/04/21 08:40:22;;;;;;;18.27;14.02;;;;;;;;;;4965985;28;20070;-76
2022/04/21 08:42:52;;;;;;;18.60;12.75;;;;;;;;;;4951908;28;20046;-75
2022/04/21 08:45:17;;;;;;;20.05;13.77;;;;;;;;;;4952901;28;20106;-76
2022/04/21 08:47:46;;;;;;;19.20;13.67;;;;;;;;;;4968669;28;20081;-75
2022/04/21 08:50:13;;;;;;;19.30;13.60;;;;;;;;;;4952159;28;21004;-75
2022/04/21 08:52:41;;;;;;;20.35;12.85;;;;;;;;;;4984991;28;20047;-76
2022/04/21 08:55:08;;;;;;;17.90;12.68;;;;;;;;;;4968575;28;20045;-76
2022/04/21 08:57:35;;;;;;;21.17;14.10;;;;;;;;;;4961419;28;20398;-77
2022/04/21 09:00:02;;;;;;;21.23;13.85;;;;;;;;;;4966926;28;20083;-77
2022/04/21 09:02:36;;;;;;;20.88;14.32;;;;;;;;;;4951961;28;20042;-76
2022/04/21 09:05:02;;;;;;;20.70;13.52;;;;;;;;;;5019028;28;20045;-77
2022/04/21 09:07:28;;;;;;;19.70;13.68;;;;;;;;;;5023770;28;20038;-77
2022/04/21 09:10:00;;;;;;;23.90;14.35;;;;;;;;;;5008999;28;20038;-77
2022/04/21 09:12:25;;;;;;;21.08;15.45;;;;;;;;;;5007967;28;20059;-77
2022/04/21 09:14:50;;;;;;;24.37;15.03;;;;;;;;;;5014291;28;20132;-76
2022/04/21 09:17:16;;;;;;;28.83;16.33;;;;;;;;;;5012091;28;21536;-76
2022/04/21 09:19:54;;;;;;;35.80;17.20;;;;;;;;;;5012560;28;20176;-76
2022/04/21 09:22:19;;;;;;;19.40;14.10;;;;;;;;;;5007342;28;20041;-76
2022/04/21 09:24:45;;;;;;;17.23;13.23;;;;;;;;;;5014231;28;20042;-74
2022/04/21 09:27:10;;;;;;;16.00;12.00;;;;;;;;;;5013043;28;20263;-74
2022/04/21 09:29:37;;;;;;;18.17;13.33;;;;;;;;;;5010289;28;20283;-76
2022/04/21 09:32:03;;;;;;;17.92;13.38;;;;;;;;;;5012284;28;20548;-75
2022/04/21 09:34:29;;;;;;;15.25;11.90;;;;;;;;;;5009708;28;20042;-77
2022/04/21 09:36:58;;;;;;;17.95;12.50;;;;;;;;;;5025865;28;20026;-75
2022/04/21 09:39:23;;;;;;;19.70;12.35;;;;;;;;;;5012317;28;20083;-75
2022/04/21 09:41:53;;;;;;;15.75;11.50;;;;;;;;;;5013622;28;20033;-74
2022/04/21 09:47:16;;;;;;;18.10;12.88;;;;;;;;;;4971125;28;20592;-76
2022/04/21 09:49:44;;;;;;;18.23;11.98;;;;;;;;;;4964082;28;20043;-75
2022/04/21 09:52:10;;;;;;;14.77;11.63;;;;;;;;;;4971497;28;20038;-74
2022/04/21 09:54:36;;;;;;;13.75;10.93;;;;;;;;;;4971172;28;20057;-74
2022/04/21 09:57:01;;;;;;;15.50;11.55;;;;;;;;;;4970904;28;20448;-73
2022/04/21 09:59:27;;;;;;;15.63;11.70;;;;;;;;;;4971828;28;20031;-74
2022/04/21 10:01:53;;;;;;;14.77;10.90;;;;;;;;;;4968729;28;20787;-75
2022/04/21 10:04:19;;;;;;;14.25;11.02;;;;;;;;;;4953851;28;20039;-74
2022/04/21 10:06:45;;;;;;;15.35;11.48;;;;;;;;;;4969565;28;20058;-76
2022/04/21 10:09:11;;;;;;;13.63;10.88;;;;;;;;;;4970178;28;20038;-75
2022/04/21 10:11:38;;;;;;;15.60;11.30;;;;;;;;;;4969114;28;20045;-74
2022/04/21 10:14:05;;;;;;;14.13;10.18;;;;;;;;;;4974940;28;20053;-73
2022/04/21 10:16:30;;;;;;;15.07;10.55;;;;;;;;;;4967919;28;20051;-75
2022/04/21 10:18:57;;;;;;;14.73;10.40;;;;;;;;;;4963446;28;20039;-74
2022/04/21 10:21:34;;;;;;;12.40;10.25;;;;;;;;;;4971543;28;20275;-74
2022/04/21 10:24:00;;;;;;;13.45;10.10;;;;;;;12.72;nan;100392.31;4973868;28;20524;-73
2022/04/21 10:26:34;;;;;;;14.18;10.00;;;;;;;;;;5006392;28;20133;-75
2022/04/21 10:29:08;;;;;;;11.85;8.77;;;;;;;;;;5012409;28;20068;-74
2022/04/21 10:31:35;;;;;;;12.98;8.93;;;;;;;;;;5027787;28;20145;-75
2022/04/21 10:34:07;;;;;;;12.35;8.95;;;;;;;;;;5012091;28;20038;-74
2022/04/21 10:36:36;;;;;;;11.68;9.38;;;;;;;;;;5006865;28;20104;-73
2022/04/21 10:39:08;;;;;;;11.05;8.75;;;;;;;;;;5011276;28;20054;-73
2022/04/21 10:41:37;;;;;;;12.52;9.68;;;;;;;;;;5014995;28;20432;-74
2022/04/21 10:44:03;;;;;;;13.10;9.57;;;;;;;;;;5011337;28;20123;-74
2022/04/21 10:46:30;;;;;;;11.70;9.55;;;;;;;;;;5009903;28;20491;-74
2022/04/21 10:48:56;;;;;;;12.05;9.50;;;;;;;;;;5009520;28;20034;-76
2022/04/21 10:51:40;;;;;;;12.48;9.25;;;;;;;;;;5008167;28;20574;-74
2022/04/21 10:59:48;;;;;;;14.07;8.68;;;;;;;;;;5011558;28;20026;-75
2022/04/21 11:02:14;;;;;;;10.45;8.40;;;;;;;;;;5026075;28;20042;-74
2022/04/21 11:04:39;;;;;;;10.57;7.82;;;;;;;;;;5026103;28;20033;-74
2022/04/21 11:07:08;;;;;;;10.98;8.85;;;;;;;;;;5010821;28;20129;-74
2022/04/21 11:09:48;;;;;;;12.38;9.25;;;;;;;;;;5008832;28;20069;-73
2022/04/21 11:12:14;;;;;;;11.82;8.57;;;;;;;;;;5022412;28;20042;-74
2022/04/21 11:14:40;;;;;;;9.60;8.00;;;;;;;;;;5025485;28;20391;-75
2022/04/21 11:17:06;;;;;;;12.25;8.13;;;;;;;;;;5011218;28;20029;-75
2022/04/21 11:19:32;;;;;;;9.68;8.05;;;;;;;;;;5010360;28;20038;-73
2022/04/21 11:21:58;;;;;;;10.10;8.18;;;;;;;;;;5005979;28;20042;-74
2022/04/21 11:24:24;;;;;;;10.80;8.45;;;;;;;;;;5011082;28;20506;-75
2022/04/21 11:26:56;;;;;;;11.45;8.15;;;;;;;;;;5011097;28;20057;-76
2022/04/21 11:29:21;;;;;;;8.85;7.70;;;;;;;;;;5010182;28;20041;-75
2022/04/21 11:31:47;;;;;;;11.75;8.25;;;;;;;;;;5012179;28;20039;-77
2022/04/21 11:34:20;;;;;;;10.13;8.20;;;;;;;;;;5017422;28;20042;-77
2022/04/21 11:36:45;;;;;;;9.35;8.13;;;;;;;;;;5009056;28;20130;-77
2022/04/21 11:39:12;;;;;;;10.97;7.47;;;;;;;;;;5016330;28;20074;-77
2022/04/21 11:41:41;;;;;;;10.63;7.80;;;;;;;;;;5028485;28;20064;-76
2022/04/21 11:44:07;;;;;;;8.23;7.35;;;;;;;;;;5029691;28;20037;-78
2022/04/21 11:46:36;;;;;;;9.80;7.40;;;;;;;;;;5027499;28;20095;-76
2022/04/21 11:49:02;;;;;;;11.48;7.25;;;;;;;;;;5043064;28;20041;-77
2022/04/21 11:51:27;;;;;;;11.35;6.80;;;;;;;;;;5028997;28;20034;-77
2022/04/21 11:53:53;;;;;;;11.50;6.80;;;;;;;;;;5025390;28;20081;-76
2022/04/21 11:56:18;;;;;;;8.32;6.55;;;;;;;;;;5021474;28;20044;-76
2022/04/21 11:58:43;;;;;;;7.23;6.27;;;;;;;;;;5029359;28;20125;-76
2022/04/21 12:06:48;;;;;;;7.03;5.80;;;;;;;;;;4999168;28;20077;-77
2022/04/21 12:09:15;;;;;;;7.13;6.07;;;;;;;;;;5008121;28;20041;-75
2022/04/21 12:11:41;;;;;;;6.63;5.65;;;;;;;;;;5010648;28;20034;-76
2022/04/21 12:14:06;;;;;;;7.90;5.95;;;;;;;;;;5007990;28;20034;-76
2022/04/21 12:16:35;;;;;;;7.80;5.60;;;;;;;;;;5010194;28;20040;-75
2022/04/21 12:19:14;;;;;;;6.85;5.38;;;;;;;;;;5025001;28;20496;-75
2022/04/21 12:21:39;;;;;;;6.50;5.63;;;;;;;;;;5009657;28;20391;-75
2022/04/21 12:24:17;;;;;;;9.10;5.88;;;;;;;;;;5010248;28;20096;-75
2022/04/21 12:26:52;;;;;;;6.90;5.55;;;;;;;;;;5024240;28;20046;-76
2022/04/21 12:29:18;;;;;;;7.68;5.72;;;;;;;;;;5021567;28;20044;-76
2022/04/21 12:31:48;;;;;;;5.88;4.97;;;;;;;;;;5009291;28;20554;-78
2022/04/21 12:34:19;;;;;;;10.90;4.88;;;;;;;;;;5007794;28;20033;-76
2022/04/21 12:36:51;;;;;;;6.35;5.20;;;;;;;;;;5024153;28;20076;-78
2022/04/21 12:39:17;;;;;;;6.57;5.47;;;;;;;;;;5016750;28;234315;-77
2022/04/21 12:41:46;;;;;;;5.85;5.10;;;;;;;;;;5024614;28;20046;-77
2022/04/21 12:44:11;;;;;;;8.43;5.43;;;;;;;;;;5008125;28;20044;-77
2022/04/21 12:46:37;;;;;;;6.63;5.70;;;;;;;;;;5021551;28;20393;-75
2022/04/21 12:49:02;;;;;;;6.10;5.17;;;;;;;;;;5006593;28;20048;-76
2022/04/21 12:51:27;;;;;;;6.78;4.97;;;;;;;;;;5008928;28;20563;-78
2022/04/21 12:53:55;;;;;;;6.13;5.40;;;;;;;;;;5010346;28;20030;-75
2022/04/21 12:56:30;;;;;;;5.85;5.25;;;;;;;;;;5011150;28;20329;-81
2022/04/21 12:58:56;;;;;;;6.57;5.45;;;;;;;;;;5010337;28;20042;-75
2022/04/21 13:01:21;;;;;;;7.35;5.53;;;;;;;;;;5011064;28;20080;-76
2022/04/21 13:03:46;;;;;;;7.73;5.43;;;;;;;;;;5008688;28;20451;-78
2022/04/21 13:06:11;;;;;;;7.77;5.93;;;;;;;;;;5021258;28;20042;-77
2022/04/21 13:08:37;;;;;;;7.57;5.85;;;;;;;15.79;nan;100208.91;5006982;28;20042;-76
2022/04/21 13:11:02;;;;;;;6.78;5.50;;;;;;;;;;5019040;28;20125;-76
2022/04/21 13:13:28;;;;;;;6.65;5.32;;;;;;;;;;5010415;28;20116;-77
2022/04/21 13:15:55;;;;;;;7.88;5.82;;;;;;;15.82;nan;100193.25;5024552;28;20423;-75
2022/04/21 13:18:20;;;;;;;6.72;5.70;;;;;;;;;;5010259;28;20046;-74
2022/04/21 13:23:29;;;;;;;7.53;5.82;;;;;;;;;;5010135;28;20384;-75
2022/04/21 13:25:55;;;;;;;6.07;5.35;;;;;;;;;;5009950;28;20048;-74